KCNO/CNO METAR and TAF weather

Enter ICAO airport designator
Station Type Date Time Source
KCNO METAR 2018/01/19 22:53 UTC NOAA

KCNO 192253Z 26011KT 6SM HZ BKN024 BKN070 17/11 A2993 RMK AO2 SLP133 T0172011


Station Type Date Time Source
KCNO Decoded METAR 2018/01/19 22:53 UTC NOAA

CHINO AIRPORT, CA, United States (KCNO) 33-58N 117-38W 207M
Jan 19, 2018 - 05:53 PM EST / 2018.01.19 2253 UTC
Wind: from the W (260 degrees) at 13 MPH (11 KT):0
Visibility: 6 mile(s):0
Sky conditions: mostly cloudy
Weather: haze
Temperature: 63.0 F (17.2 C)
Dew Point: 52.0 F (11.1 C)
Relative Humidity: 67%
Pressure (altimeter): 29.93 in. Hg (1013 hPa)
ob: KCNO 192253Z 26011KT 6SM HZ BKN024 BKN070 17/11 A2993 RMK AO2 SLP133 T01720111
cycle: 23

Station Type Date Time Source
KCNO TAF UTC NOAA

Error!


Example: see airport list